Terminal Aerodrome Forecast
Issued by NWS Cleveland, OH

Home | Current Version | Previous Version | Graphics & Text | Print | Product List | Glossary On
Versions: 1 2 3 4 5 6 7 8 9 10 11 12 13 14 15 16 17 18
000
FTUS41 KCLE 290540
TAFYNG
TAF
KYNG 290540Z 2906/3006 VRB03KT 6SM BR SCT035 BKN250
      TEMPO 2907/2909 2SM BR
     FM290900 03005KT 3SM BR SCT007 BKN020
      TEMPO 2909/2912 1SM BR BKN007
     FM291300 03005KT P6SM SCT020
     FM291500 36008KT P6SM SCT050=

USA.gov is the U.S. government's official web portal to all federal, state and local government web resources and services.